Terminal Aerodrome Forecast
Issued by NWS

Home | Current Version | Previous Version | Text Only | Print | Product List | Glossary On
Versions: 1 2 3 4 5 6 7 8 9 10 11 12 13 14
000
FTUS43 KGLD 191100
TAFMCK
TAF
KMCK 191131Z 1912/2012 17008KT P6SM BKN150
     FM191600 05010KT P6SM SCT040 BKN120
     FM200600 VRB06KT P6SM SCT040 OVC100 PROB30 2006/2012 -TSRA
      BKN040CB=

USA.gov is the U.S. government's official web portal to all federal, state and local government web resources and services.